sensor_id;sensor_type;location;lat;lon;timestamp;pressure;altitude;pressure_sealevel;temperature;humidity
25658;BME280;13517;59.320;18.042;2022-09-20T00:01:09;100604.00;;;9.23;100.00
25658;BME280;13517;59.320;18.042;2022-09-20T00:03:35;100573.28;;;9.11;100.00
25658;BME280;13517;59.320;18.042;2022-09-20T00:06:01;100605.91;;;9.21;100.00
25658;BME280;13517;59.320;18.042;2022-09-20T00:08:27;100593.38;;;9.20;100.00
25658;BME280;13517;59.320;18.042;2022-09-20T00:11:00;100594.94;;;9.24;100.00
25658;BME280;13517;59.320;18.042;2022-09-20T00:13:27;100602.81;;;9.27;100.00
25658;BME280;13517;59.320;18.042;2022-09-20T00:15:53;100593.38;;;9.20;100.00
25658;BME280;13517;59.320;18.042;2022-09-20T00:18:18;100612.56;;;9.30;100.00
25658;BME280;13517;59.320;18.042;2022-09-20T00:20:48;100609.78;;;9.31;100.00
25658;BME280;13517;59.320;18.042;2022-09-20T00:23:14;100612.47;;;9.31;100.00
25658;BME280;13517;59.320;18.042;2022-09-20T00:25:40;100583.09;;;9.12;100.00
25658;BME280;13517;59.320;18.042;2022-09-20T00:28:06;100604.47;;;9.30;100.00
25658;BME280;13517;59.320;18.042;2022-09-20T00:30:32;100613.22;;;9.33;100.00
25658;BME280;13517;59.320;18.042;2022-09-20T00:32:58;100589.84;;;9.19;100.00
25658;BME280;13517;59.320;18.042;2022-09-20T00:35:24;100609.56;;;9.34;100.00
25658;BME280;13517;59.320;18.042;2022-09-20T00:37:49;100616.69;;;9.35;100.00
25658;BME280;13517;59.320;18.042;2022-09-20T00:40:17;100601.78;;;9.30;100.00
25658;BME280;13517;59.320;18.042;2022-09-20T00:42:45;100602.81;;;9.27;100.00
25658;BME280;13517;59.320;18.042;2022-09-20T00:45:20;100607.09;;;9.31;100.00
25658;BME280;13517;59.320;18.042;2022-09-20T00:48:05;100615.75;;;9.36;100.00
25658;BME280;13517;59.320;18.042;2022-09-20T00:53:13;100598.88;;;9.18;100.00
25658;BME280;13517;59.320;18.042;2022-09-20T00:58:28;100620.56;;;9.31;100.00
25658;BME280;13517;59.320;18.042;2022-09-20T01:00:55;100623.91;;;9.20;100.00
25658;BME280;13517;59.320;18.042;2022-09-20T01:03:23;100638.91;;;9.24;100.00
25658;BME280;13517;59.320;18.042;2022-09-20T01:05:52;100634.41;;;9.25;100.00
25658;BME280;13517;59.320;18.042;2022-09-20T01:08:19;100634.50;;;9.23;100.00
25658;BME280;13517;59.320;18.042;2022-09-20T01:10:45;100639.44;;;9.31;100.00
25658;BME280;13517;59.320;18.042;2022-09-20T01:13:11;100643.09;;;9.30;100.00
25658;BME280;13517;59.320;18.042;2022-09-20T01:15:37;100653.06;;;9.28;100.00
25658;BME280;13517;59.320;18.042;2022-09-20T01:18:05;100650.50;;;9.26;100.00
25658;BME280;13517;59.320;18.042;2022-09-20T01:20:36;100642.28;;;9.28;100.00
25658;BME280;13517;59.320;18.042;2022-09-20T01:23:15;100646.91;;;9.26;100.00
25658;BME280;13517;59.320;18.042;2022-09-20T01:26:06;100653.00;;;9.30;100.00
25658;BME280;13517;59.320;18.042;2022-09-20T01:28:35;100635.97;;;9.29;100.00
25658;BME280;13517;59.320;18.042;2022-09-20T01:31:07;100641.75;;;9.37;100.00
25658;BME280;13517;59.320;18.042;2022-09-20T01:36:20;100653.13;;;9.43;100.00
25658;BME280;13517;59.320;18.042;2022-09-20T01:42:07;100611.13;;;9.24;100.00
25658;BME280;13517;59.320;18.042;2022-09-20T01:50:32;100666.06;;;9.21;100.00
25658;BME280;13517;59.320;18.042;2022-09-20T02:12:37;100673.09;;;9.24;100.00
25658;BME280;13517;59.320;18.042;2022-09-20T02:30:04;100665.38;;;9.18;100.00
25658;BME280;13517;59.320;18.042;2022-09-20T02:43:39;100723.72;;;9.19;100.00
25658;BME280;13517;59.320;18.042;2022-09-20T02:46:12;100688.28;;;9.10;100.00
25658;BME280;13517;59.320;18.042;2022-09-20T02:52:04;100696.44;;;9.09;100.00
25658;BME280;13517;59.320;18.042;2022-09-20T03:00:08;100719.50;;;9.15;100.00
25658;BME280;13517;59.320;18.042;2022-09-20T03:10:56;100729.13;;;9.19;100.00
25658;BME280;13517;59.320;18.042;2022-09-20T03:27:53;100746.44;;;9.15;100.00
25658;BME280;13517;59.320;18.042;2022-09-20T03:39:03;100746.06;;;9.21;100.00
25658;BME280;13517;59.320;18.042;2022-09-20T03:41:49;100751.84;;;9.15;100.00
25658;BME280;13517;59.320;18.042;2022-09-20T04:03:44;100765.94;;;9.04;100.00
25658;BME280;13517;59.320;18.042;2022-09-20T04:12:06;100783.13;;;9.01;100.00
25658;BME280;13517;59.320;18.042;2022-09-20T04:14:49;100791.72;;;9.08;100.00
25658;BME280;13517;59.320;18.042;2022-09-20T04:20:31;100806.66;;;9.13;100.00
25658;BME280;13517;59.320;18.042;2022-09-20T04:23:11;100782.94;;;9.04;100.00
25658;BME280;13517;59.320;18.042;2022-09-20T04:25:42;100808.50;;;9.13;100.00
25658;BME280;13517;59.320;18.042;2022-09-20T04:28:18;100815.97;;;9.08;100.00
25658;BME280;13517;59.320;18.042;2022-09-20T04:30:46;100825.03;;;9.07;100.00
25658;BME280;13517;59.320;18.042;2022-09-20T04:33:20;100807.81;;;8.93;100.00
25658;BME280;13517;59.320;18.042;2022-09-20T04:38:39;100813.19;;;8.93;100.00
25658;BME280;13517;59.320;18.042;2022-09-20T04:47:12;100846.41;;;9.10;100.00
25658;BME280;13517;59.320;18.042;2022-09-20T05:04:22;100885.19;;;9.07;100.00
25658;BME280;13517;59.320;18.042;2022-09-20T05:15:34;100889.19;;;9.16;100.00
25658;BME280;13517;59.320;18.042;2022-09-20T05:29:51;100925.34;;;9.12;100.00
25658;BME280;13517;59.320;18.042;2022-09-20T05:35:18;100900.56;;;9.05;100.00
25658;BME280;13517;59.320;18.042;2022-09-20T05:38:04;100911.34;;;9.05;100.00
25658;BME280;13517;59.320;18.042;2022-09-20T05:52:43;100939.69;;;9.12;100.00
25658;BME280;13517;59.320;18.042;2022-09-20T06:00:57;100937.78;;;9.15;100.00
25658;BME280;13517;59.320;18.042;2022-09-20T06:03:47;100955.78;;;9.14;100.00
25658;BME280;13517;59.320;18.042;2022-09-20T06:12:29;100948.72;;;9.11;100.00
25658;BME280;13517;59.320;18.042;2022-09-20T06:14:56;100947.09;;;9.25;100.00
25658;BME280;13517;59.320;18.042;2022-09-20T06:17:37;101000.69;;;9.31;100.00
25658;BME280;13517;59.320;18.042;2022-09-20T06:20:27;100961.34;;;9.27;100.00
25658;BME280;13517;59.320;18.042;2022-09-20T06:22:57;100968.31;;;9.31;100.00
25658;BME280;13517;59.320;18.042;2022-09-20T06:25:28;100969.81;;;9.37;100.00
25658;BME280;13517;59.320;18.042;2022-09-20T06:28:05;100949.03;;;9.23;100.00
25658;BME280;13517;59.320;18.042;2022-09-20T06:30:36;100973.03;;;9.44;100.00
25658;BME280;13517;59.320;18.042;2022-09-20T06:33:16;100975.22;;;9.53;100.00
25658;BME280;13517;59.320;18.042;2022-09-20T06:36:00;100960.41;;;9.44;100.00
25658;BME280;13517;59.320;18.042;2022-09-20T06:41:39;100995.28;;;9.63;100.00
25658;BME280;13517;59.320;18.042;2022-09-20T06:44:05;100993.06;;;9.72;100.00
25658;BME280;13517;59.320;18.042;2022-09-20T06:46:33;100991.22;;;9.72;100.00
25658;BME280;13517;59.320;18.042;2022-09-20T06:49:01;101015.50;;;9.88;100.00
25658;BME280;13517;59.320;18.042;2022-09-20T06:51:28;101007.06;;;9.94;100.00
25658;BME280;13517;59.320;18.042;2022-09-20T06:53:58;101013.22;;;9.97;100.00
25658;BME280;13517;59.320;18.042;2022-09-20T06:56:26;101023.94;;;10.14;100.00
25658;BME280;13517;59.320;18.042;2022-09-20T06:58:52;101028.34;;;10.15;100.00
25658;BME280;13517;59.320;18.042;2022-09-20T07:01:19;101015.91;;;10.13;100.00
25658;BME280;13517;59.320;18.042;2022-09-20T07:03:44;100999.97;;;10.08;100.00
25658;BME280;13517;59.320;18.042;2022-09-20T07:06:10;101005.38;;;10.08;100.00
25658;BME280;13517;59.320;18.042;2022-09-20T07:08:36;100999.28;;;10.04;100.00
25658;BME280;13517;59.320;18.042;2022-09-20T07:11:19;101024.69;;;10.16;100.00
25658;BME280;13517;59.320;18.042;2022-09-20T07:13:52;101049.25;;;10.28;100.00
25658;BME280;13517;59.320;18.042;2022-09-20T07:16:19;101034.44;;;10.19;100.00
25658;BME280;13517;59.320;18.042;2022-09-20T07:18:45;101026.97;;;9.92;100.00
25658;BME280;13517;59.320;18.042;2022-09-20T07:21:13;101066.16;;;9.99;100.00
25658;BME280;13517;59.320;18.042;2022-09-20T07:23:39;101048.72;;;10.05;100.00
25658;BME280;13517;59.320;18.042;2022-09-20T07:26:06;101055.88;;;10.06;100.00
25658;BME280;13517;59.320;18.042;2022-09-20T07:28:33;101062.84;;;10.10;100.00
25658;BME280;13517;59.320;18.042;2022-09-20T07:30:59;101063.88;;;10.07;100.00
25658;BME280;13517;59.320;18.042;2022-09-20T07:33:25;101059.72;;;10.02;100.00
25658;BME280;13517;59.320;18.042;2022-09-20T07:35:52;101043.44;;;10.03;100.00
25658;BME280;13517;59.320;18.042;2022-09-20T07:38:19;101057.97;;;10.01;100.00
25658;BME280;13517;59.320;18.042;2022-09-20T07:40:45;101059.44;;;9.90;100.00
25658;BME280;13517;59.320;18.042;2022-09-20T07:43:11;101082.34;;;9.99;100.00
25658;BME280;13517;59.320;18.042;2022-09-20T07:45:37;101056.94;;;10.03;100.00
25658;BME280;13517;59.320;18.042;2022-09-20T07:48:05;101064.03;;;10.20;100.00
25658;BME280;13517;59.320;18.042;2022-09-20T07:50:32;101079.44;;;10.34;100.00
25658;BME280;13517;59.320;18.042;2022-09-20T07:52:58;101080.69;;;10.29;100.00
25658;BME280;13517;59.320;18.042;2022-09-20T07:55:24;101045.69;;;10.11;100.00
25658;BME280;13517;59.320;18.042;2022-09-20T07:57:49;101064.03;;;10.20;100.00
25658;BME280;13517;59.320;18.042;2022-09-20T08:00:16;101066.66;;;10.22;100.00
25658;BME280;13517;59.320;18.042;2022-09-20T08:02:41;101062.75;;;10.28;100.00
25658;BME280;13517;59.320;18.042;2022-09-20T08:05:08;101067.00;;;10.32;100.00
25658;BME280;13517;59.320;18.042;2022-09-20T08:07:34;101075.88;;;10.34;100.00
25658;BME280;13517;59.320;18.042;2022-09-20T08:09:59;101059.19;;;10.43;100.00
25658;BME280;13517;59.320;18.042;2022-09-20T08:12:24;101106.06;;;10.42;100.00
25658;BME280;13517;59.320;18.042;2022-09-20T08:14:50;101080.44;;;10.17;100.00
25658;BME280;13517;59.320;18.042;2022-09-20T08:17:16;101071.00;;;10.25;100.00
25658;BME280;13517;59.320;18.042;2022-09-20T08:19:42;101086.16;;;10.27;100.00
25658;BME280;13517;59.320;18.042;2022-09-20T08:22:07;101085.31;;;10.43;100.00
25658;BME280;13517;59.320;18.042;2022-09-20T08:24:35;101101.22;;;10.47;100.00
25658;BME280;13517;59.320;18.042;2022-09-20T08:27:00;101085.44;;;10.56;100.00
25658;BME280;13517;59.320;18.042;2022-09-20T08:29:25;101093.66;;;10.54;100.00
25658;BME280;13517;59.320;18.042;2022-09-20T08:31:51;101065.44;;;10.44;100.00
25658;BME280;13517;59.320;18.042;2022-09-20T08:34:17;101115.00;;;10.59;100.00
25658;BME280;13517;59.320;18.042;2022-09-20T08:36:44;101076.75;;;10.51;100.00
25658;BME280;13517;59.320;18.042;2022-09-20T08:39:12;101079.06;;;10.42;100.00
25658;BME280;13517;59.320;18.042;2022-09-20T08:41:47;101103.22;;;10.60;100.00
25658;BME280;13517;59.320;18.042;2022-09-20T08:44:33;101113.25;;;10.58;100.00
25658;BME280;13517;59.320;18.042;2022-09-20T08:47:32;101109.34;;;10.47;100.00
25658;BME280;13517;59.320;18.042;2022-09-20T08:50:02;101137.94;;;10.52;100.00
25658;BME280;13517;59.320;18.042;2022-09-20T08:52:34;101117.84;;;10.56;100.00
25658;BME280;13517;59.320;18.042;2022-09-20T08:55:03;101115.78;;;10.61;100.00
25658;BME280;13517;59.320;18.042;2022-09-20T08:57:37;101102.88;;;10.66;100.00
25658;BME280;13517;59.320;18.042;2022-09-20T09:00:04;101128.38;;;10.76;100.00
25658;BME280;13517;59.320;18.042;2022-09-20T09:02:31;101162.31;;;10.66;100.00
25658;BME280;13517;59.320;18.042;2022-09-20T09:04:57;101159.81;;;10.63;100.00
25658;BME280;13517;59.320;18.042;2022-09-20T09:07:24;101160.72;;;10.62;100.00
25658;BME280;13517;59.320;18.042;2022-09-20T09:09:53;101104.19;;;10.59;100.00
25658;BME280;13517;59.320;18.042;2022-09-20T09:12:23;101154.63;;;10.74;100.00
25658;BME280;13517;59.320;18.042;2022-09-20T09:14:50;101158.25;;;10.89;100.00
25658;BME280;13517;59.320;18.042;2022-09-20T09:17:29;101125.78;;;11.06;100.00
25658;BME280;13517;59.320;18.042;2022-09-20T09:22:42;101156.81;;;10.98;96.94
25658;BME280;13517;59.320;18.042;2022-09-20T09:27:55;101157.06;;;11.10;97.07
25658;BME280;13517;59.320;18.042;2022-09-20T09:30:25;101163.56;;;11.22;98.17
25658;BME280;13517;59.320;18.042;2022-09-20T09:32:54;101140.50;;;11.30;98.49
25658;BME280;13517;59.320;18.042;2022-09-20T09:35:37;101145.50;;;11.22;97.71
25658;BME280;13517;59.320;18.042;2022-09-20T09:38:03;101190.28;;;11.12;97.72
25658;BME280;13517;59.320;18.042;2022-09-20T09:40:30;101168.16;;;11.05;97.54
25658;BME280;13517;59.320;18.042;2022-09-20T09:43:00;101178.59;;;11.11;97.70
25658;BME280;13517;59.320;18.042;2022-09-20T09:45:33;101196.16;;;11.04;95.56
25658;BME280;13517;59.320;18.042;2022-09-20T09:50:42;101193.41;;;11.20;97.30
25658;BME280;13517;59.320;18.042;2022-09-20T09:53:14;101170.41;;;11.13;97.61
25658;BME280;13517;59.320;18.042;2022-09-20T09:55:54;101175.38;;;11.04;96.97
25658;BME280;13517;59.320;18.042;2022-09-20T09:58:33;101167.78;;;10.81;97.74
25658;BME280;13517;59.320;18.042;2022-09-20T10:01:09;101187.41;;;10.68;97.64
25658;BME280;13517;59.320;18.042;2022-09-20T10:04:09;101174.94;;;10.66;97.06
25658;BME280;13517;59.320;18.042;2022-09-20T10:06:47;101189.31;;;10.66;97.93
25658;BME280;13517;59.320;18.042;2022-09-20T10:12:32;101176.50;;;10.70;100.00
25658;BME280;13517;59.320;18.042;2022-09-20T10:15:19;101181.47;;;10.78;96.50
25658;BME280;13517;59.320;18.042;2022-09-20T10:42:48;101208.16;;;11.60;89.22
25658;BME280;13517;59.320;18.042;2022-09-20T10:48:35;101226.44;;;11.56;92.91
25658;BME280;13517;59.320;18.042;2022-09-20T10:56:39;101226.38;;;11.11;92.30
25658;BME280;13517;59.320;18.042;2022-09-20T11:05:37;101272.13;;;10.67;95.88
25658;BME280;13517;59.320;18.042;2022-09-20T11:10:13;101238.31;;;10.60;99.04
25658;BME280;13517;59.320;18.042;2022-09-20T11:12:55;101252.53;;;10.80;98.97
25658;BME280;13517;59.320;18.042;2022-09-20T11:15:28;101258.53;;;10.85;97.84
25658;BME280;13517;59.320;18.042;2022-09-20T11:20:46;101257.97;;;11.10;97.03
25658;BME280;13517;59.320;18.042;2022-09-20T11:23:21;101244.34;;;11.12;96.42
25658;BME280;13517;59.320;18.042;2022-09-20T11:25:53;101253.03;;;11.33;96.49
25658;BME280;13517;59.320;18.042;2022-09-20T11:28:30;101260.91;;;11.52;94.09
25658;BME280;13517;59.320;18.042;2022-09-20T11:31:02;101260.34;;;11.62;94.39
25658;BME280;13517;59.320;18.042;2022-09-20T11:33:36;101273.75;;;11.49;94.24
25658;BME280;13517;59.320;18.042;2022-09-20T11:36:10;101278.69;;;11.42;92.78
25658;BME280;13517;59.320;18.042;2022-09-20T11:41:21;101264.16;;;11.12;95.29
25658;BME280;13517;59.320;18.042;2022-09-20T11:43:51;101287.81;;;11.09;95.37
25658;BME280;13517;59.320;18.042;2022-09-20T11:46:24;101280.38;;;11.12;95.84
25658;BME280;13517;59.320;18.042;2022-09-20T11:51:51;101276.28;;;11.21;93.64
25658;BME280;13517;59.320;18.042;2022-09-20T11:57:12;101295.78;;;11.26;93.54
25658;BME280;13517;59.320;18.042;2022-09-20T11:59:42;101297.00;;;11.37;92.92
25658;BME280;13517;59.320;18.042;2022-09-20T12:05:06;101298.75;;;11.38;93.83
25658;BME280;13517;59.320;18.042;2022-09-20T12:07:51;101278.78;;;11.24;95.03
25658;BME280;13517;59.320;18.042;2022-09-20T12:10:23;101272.47;;;10.93;92.82
25658;BME280;13517;59.320;18.042;2022-09-20T12:12:55;101305.06;;;10.90;94.04
25658;BME280;13517;59.320;18.042;2022-09-20T12:15:28;101345.81;;;10.87;93.65
25658;BME280;13517;59.320;18.042;2022-09-20T12:26:02;101334.38;;;10.98;92.83
25658;BME280;13517;59.320;18.042;2022-09-20T12:28:52;101330.28;;;11.07;92.53
25658;BME280;13517;59.320;18.042;2022-09-20T12:36:31;101357.84;;;11.13;92.52
25658;BME280;13517;59.320;18.042;2022-09-20T12:41:43;101351.38;;;11.16;91.68
25658;BME280;13517;59.320;18.042;2022-09-20T12:44:34;101349.66;;;11.15;91.10
25658;BME280;13517;59.320;18.042;2022-09-20T13:03:35;101373.56;;;11.07;92.44
25658;BME280;13517;59.320;18.042;2022-09-20T13:08:50;101356.09;;;10.96;91.65
25658;BME280;13517;59.320;18.042;2022-09-20T13:13:55;101370.75;;;10.92;94.10
25658;BME280;13517;59.320;18.042;2022-09-20T13:16:39;101391.44;;;10.93;92.69
25658;BME280;13517;59.320;18.042;2022-09-20T13:19:18;101397.56;;;10.79;91.63
25658;BME280;13517;59.320;18.042;2022-09-20T13:22:05;101399.25;;;10.82;89.32
25658;BME280;13517;59.320;18.042;2022-09-20T13:24:39;101378.84;;;10.76;90.34
25658;BME280;13517;59.320;18.042;2022-09-20T13:27:08;101398.13;;;10.86;90.50
25658;BME280;13517;59.320;18.042;2022-09-20T13:29:43;101383.91;;;10.98;91.24
25658;BME280;13517;59.320;18.042;2022-09-20T13:32:26;101394.22;;;11.08;88.99
25658;BME280;13517;59.320;18.042;2022-09-20T13:37:30;101388.81;;;11.24;89.20
25658;BME280;13517;59.320;18.042;2022-09-20T13:39:56;101395.34;;;11.36;89.79
25658;BME280;13517;59.320;18.042;2022-09-20T13:42:23;101392.47;;;11.39;89.14
25658;BME280;13517;59.320;18.042;2022-09-20T13:44:48;101408.19;;;11.32;88.59
25658;BME280;13517;59.320;18.042;2022-09-20T13:47:22;101404.34;;;11.20;84.97
25658;BME280;13517;59.320;18.042;2022-09-20T13:49:48;101393.78;;;10.99;86.24
25658;BME280;13517;59.320;18.042;2022-09-20T13:52:23;101398.84;;;11.06;84.25
25658;BME280;13517;59.320;18.042;2022-09-20T13:54:49;101415.16;;;11.04;81.48
25658;BME280;13517;59.320;18.042;2022-09-20T13:57:24;101415.41;;;11.15;84.25
25658;BME280;13517;59.320;18.042;2022-09-20T13:59:50;101419.00;;;11.16;85.29
25658;BME280;13517;59.320;18.042;2022-09-20T14:02:25;101423.09;;;11.23;84.42
25658;BME280;13517;59.320;18.042;2022-09-20T14:04:53;101412.00;;;11.12;83.18
25658;BME280;13517;59.320;18.042;2022-09-20T14:07:19;101404.41;;;11.02;83.76
25658;BME280;13517;59.320;18.042;2022-09-20T14:09:45;101442.00;;;11.07;84.28
25658;BME280;13517;59.320;18.042;2022-09-20T14:12:11;101400.13;;;10.98;84.42
25658;BME280;13517;59.320;18.042;2022-09-20T14:14:38;101419.88;;;11.16;84.84
25658;BME280;13517;59.320;18.042;2022-09-20T14:17:06;101457.19;;;11.10;84.42
25658;BME280;13517;59.320;18.042;2022-09-20T14:19:38;101450.81;;;11.11;85.75
25658;BME280;13517;59.320;18.042;2022-09-20T14:22:05;101443.50;;;10.97;85.50
25658;BME280;13517;59.320;18.042;2022-09-20T14:24:35;101450.78;;;10.79;85.68
25658;BME280;13517;59.320;18.042;2022-09-20T14:29:37;101443.50;;;10.63;87.28
25658;BME280;13517;59.320;18.042;2022-09-20T14:39:55;101446.22;;;10.28;89.04
25658;BME280;13517;59.320;18.042;2022-09-20T14:44:54;101470.88;;;10.38;91.09
25658;BME280;13517;59.320;18.042;2022-09-20T14:47:52;101451.59;;;10.28;92.17
25658;BME280;13517;59.320;18.042;2022-09-20T14:50:39;101481.31;;;10.28;91.19
25658;BME280;13517;59.320;18.042;2022-09-20T14:55:39;101479.63;;;10.25;92.29
25658;BME280;13517;59.320;18.042;2022-09-20T14:58:10;101479.84;;;10.20;92.56
25658;BME280;13517;59.320;18.042;2022-09-20T15:01:26;101502.34;;;10.21;91.74
25658;BME280;13517;59.320;18.042;2022-09-20T15:03:51;101494.16;;;10.22;92.78
25658;BME280;13517;59.320;18.042;2022-09-20T15:06:18;101499.72;;;10.19;92.08
25658;BME280;13517;59.320;18.042;2022-09-20T15:08:44;101491.78;;;10.16;91.96
25658;BME280;13517;59.320;18.042;2022-09-20T15:11:13;101505.59;;;10.10;91.50
25658;BME280;13517;59.320;18.042;2022-09-20T15:13:39;101487.94;;;10.03;91.74
25658;BME280;13517;59.320;18.042;2022-09-20T15:16:04;101497.66;;;10.07;91.89
25658;BME280;13517;59.320;18.042;2022-09-20T15:18:50;101501.38;;;10.04;90.91
25658;BME280;13517;59.320;18.042;2022-09-20T15:21:15;101511.28;;;10.04;91.74
25658;BME280;13517;59.320;18.042;2022-09-20T15:23:41;101502.22;;;10.05;89.91
25658;BME280;13517;59.320;18.042;2022-09-20T15:26:07;101488.31;;;9.95;89.86
25658;BME280;13517;59.320;18.042;2022-09-20T15:28:35;101507.00;;;10.00;89.55
25658;BME280;13517;59.320;18.042;2022-09-20T15:31:00;101514.94;;;10.03;88.64
25658;BME280;13517;59.320;18.042;2022-09-20T15:33:28;101507.78;;;10.02;86.82
25658;BME280;13517;59.320;18.042;2022-09-20T15:35:54;101501.97;;;9.92;87.08
25658;BME280;13517;59.320;18.042;2022-09-20T15:38:19;101508.75;;;10.01;87.11
25658;BME280;13517;59.320;18.042;2022-09-20T15:40:47;101519.38;;;10.04;87.22
25658;BME280;13517;59.320;18.042;2022-09-20T15:43:15;101518.44;;;10.05;87.02
25658;BME280;13517;59.320;18.042;2022-09-20T15:45:49;101518.59;;;10.02;86.27
25658;BME280;13517;59.320;18.042;2022-09-20T15:48:17;101506.34;;;9.94;85.79
25658;BME280;13517;59.320;18.042;2022-09-20T15:53:30;101515.41;;;9.93;84.72
25658;BME280;13517;59.320;18.042;2022-09-20T15:55:57;101526.63;;;10.03;85.92
25658;BME280;13517;59.320;18.042;2022-09-20T15:58:26;101522.25;;;10.01;85.56
25658;BME280;13517;59.320;18.042;2022-09-20T16:00:52;101535.97;;;9.96;86.83
25658;BME280;13517;59.320;18.042;2022-09-20T16:03:17;101540.84;;;9.88;86.39
25658;BME280;13517;59.320;18.042;2022-09-20T16:05:42;101550.84;;;9.86;86.92
25658;BME280;13517;59.320;18.042;2022-09-20T16:08:08;101518.34;;;9.70;86.69
25658;BME280;13517;59.320;18.042;2022-09-20T16:10:33;101557.72;;;9.74;85.82
25658;BME280;13517;59.320;18.042;2022-09-20T16:12:59;101533.97;;;9.63;86.54
25658;BME280;13517;59.320;18.042;2022-09-20T16:15:24;101554.66;;;9.62;86.38
25658;BME280;13517;59.320;18.042;2022-09-20T16:17:50;101544.97;;;9.58;85.80
25658;BME280;13517;59.320;18.042;2022-09-20T16:20:51;101566.84;;;9.52;85.69
25658;BME280;13517;59.320;18.042;2022-09-20T16:23:16;101536.94;;;9.37;86.14
25658;BME280;13517;59.320;18.042;2022-09-20T16:25:41;101538.75;;;9.37;86.50
25658;BME280;13517;59.320;18.042;2022-09-20T16:28:07;101535.38;;;9.32;86.83
25658;BME280;13517;59.320;18.042;2022-09-20T16:30:32;101582.78;;;9.37;86.98
25658;BME280;13517;59.320;18.042;2022-09-20T16:32:58;101562.34;;;9.32;88.48
25658;BME280;13517;59.320;18.042;2022-09-20T16:35:29;101565.00;;;9.33;87.97
25658;BME280;13517;59.320;18.042;2022-09-20T16:37:54;101576.94;;;9.27;88.24
25658;BME280;13517;59.320;18.042;2022-09-20T16:40:21;101560.16;;;9.21;88.01
25658;BME280;13517;59.320;18.042;2022-09-20T16:42:46;101570.28;;;9.16;88.09
25658;BME280;13517;59.320;18.042;2022-09-20T16:45:12;101561.81;;;9.04;87.59
25658;BME280;13517;59.320;18.042;2022-09-20T16:47:38;101562.59;;;9.06;88.50
25658;BME280;13517;59.320;18.042;2022-09-20T16:50:05;101586.94;;;9.05;89.44
25658;BME280;13517;59.320;18.042;2022-09-20T16:52:32;101592.34;;;9.05;88.58
25658;BME280;13517;59.320;18.042;2022-09-20T16:54:57;101576.44;;;8.98;89.48
25658;BME280;13517;59.320;18.042;2022-09-20T16:57:23;101566.19;;;8.86;89.81
25658;BME280;13517;59.320;18.042;2022-09-20T16:59:48;101591.25;;;8.88;89.27
25658;BME280;13517;59.320;18.042;2022-09-20T17:02:15;101561.28;;;8.75;89.36
25658;BME280;13517;59.320;18.042;2022-09-20T17:04:41;101585.53;;;8.75;89.53
25658;BME280;13517;59.320;18.042;2022-09-20T17:07:07;101580.09;;;8.77;89.56
25658;BME280;13517;59.320;18.042;2022-09-20T17:09:33;101586.47;;;8.74;89.71
25658;BME280;13517;59.320;18.042;2022-09-20T17:11:58;101582.03;;;8.73;89.54
25658;BME280;13517;59.320;18.042;2022-09-20T17:14:24;101574.47;;;8.61;90.10
25658;BME280;13517;59.320;18.042;2022-09-20T17:16:49;101586.94;;;8.63;90.13
25658;BME280;13517;59.320;18.042;2022-09-20T17:19:17;101573.16;;;8.49;90.12
25658;BME280;13517;59.320;18.042;2022-09-20T17:21:44;101594.34;;;8.58;90.51
25658;BME280;13517;59.320;18.042;2022-09-20T17:24:13;101586.53;;;8.50;90.27
25658;BME280;13517;59.320;18.042;2022-09-20T17:26:40;101595.69;;;8.46;90.94
25658;BME280;13517;59.320;18.042;2022-09-20T17:29:09;101578.16;;;8.36;91.09
25658;BME280;13517;59.320;18.042;2022-09-20T17:31:37;101599.59;;;8.39;91.88
25658;BME280;13517;59.320;18.042;2022-09-20T17:34:04;101567.72;;;8.28;91.76
25658;BME280;13517;59.320;18.042;2022-09-20T17:36:33;101583.81;;;8.29;92.22
25658;BME280;13517;59.320;18.042;2022-09-20T17:39:00;101597.00;;;8.36;92.77
25658;BME280;13517;59.320;18.042;2022-09-20T17:41:28;101572.81;;;8.13;93.56
25658;BME280;13517;59.320;18.042;2022-09-20T17:43:55;101578.88;;;8.18;92.66
25658;BME280;13517;59.320;18.042;2022-09-20T17:46:26;101594.94;;;8.20;92.84
25658;BME280;13517;59.320;18.042;2022-09-20T17:48:55;101597.84;;;8.15;93.08
25658;BME280;13517;59.320;18.042;2022-09-20T17:51:26;101601.16;;;8.22;93.64
25658;BME280;13517;59.320;18.042;2022-09-20T17:53:52;101609.34;;;8.19;93.50
25658;BME280;13517;59.320;18.042;2022-09-20T17:56:20;101607.72;;;8.15;93.44
25658;BME280;13517;59.320;18.042;2022-09-20T17:58:48;101611.09;;;8.20;93.58
25658;BME280;13517;59.320;18.042;2022-09-20T18:01:16;101591.94;;;8.06;94.26
25658;BME280;13517;59.320;18.042;2022-09-20T18:03:44;101612.09;;;8.17;93.88
25658;BME280;13517;59.320;18.042;2022-09-20T18:06:19;101622.13;;;8.14;93.31
25658;BME280;13517;59.320;18.042;2022-09-20T18:08:47;101625.75;;;8.13;93.68
25658;BME280;13517;59.320;18.042;2022-09-20T18:11:13;101609.78;;;8.08;93.81
25658;BME280;13517;59.320;18.042;2022-09-20T18:13:39;101611.72;;;8.04;94.42
25658;BME280;13517;59.320;18.042;2022-09-20T18:16:10;101626.88;;;8.07;93.38
25658;BME280;13517;59.320;18.042;2022-09-20T18:18:40;101619.00;;;8.02;93.54
25658;BME280;13517;59.320;18.042;2022-09-20T18:23:35;101620.22;;;7.94;95.42
25658;BME280;13517;59.320;18.042;2022-09-20T18:26:32;101623.84;;;7.93;95.55
25658;BME280;13517;59.320;18.042;2022-09-20T18:31:29;101636.50;;;7.90;97.16
25658;BME280;13517;59.320;18.042;2022-09-20T18:34:00;101647.38;;;7.87;97.32